Flight Track Log - Related Links

Times and Time Zones

All times are in EDT time to prevent confusion due to time zone crossing. See the FDX1611 flight status page for this flight to view local times or setup timezone preferences in your user account.

Time Position Orientation Groundspeed Altitude Reporting Facility
EDT Latitude Longitude Course Direction KTS MPH feet Rate Location/Type
Mon 11:09:46 PM 42.2200 -83.3703 233° Southwest 284 327 1,200  Level Cleveland Center
Mon 11:12:40 PM 42.1414 -83.5097 206° Southwest 262 302 12,600 3,692 Climbing Cleveland Center
Mon 11:13:40 PM 42.0269 -83.5853 207° Southwest 367 422 15,600 3,800 Climbing Cleveland Center
Mon 11:14:40 PM 41.9103 -83.6636 206° Southwest 428 493 20,200 4,150 Climbing Cleveland Center
Mon 11:15:40 PM 41.7956 -83.7389 207° Southwest 464 534 23,900 1,900 Climbing Cleveland Center
Mon 11:16:40 PM 41.6831 -83.8142 206° Southwest 464 534 24,000 50 Climbing Cleveland Center
Mon 11:17:40 PM 41.5683 -83.8889 205° Southwest 459 528 24,000  Level Cleveland Center
Mon 11:20:11 PM 41.2856 -84.0678 206° Southwest 449 517 24,000  Level Indianapolis Center
Mon 11:21:11 PM 41.1728 -84.1414 207° Southwest 449 517 24,000  Level Indianapolis Center
Mon 11:22:11 PM 41.0786 -84.2039 215° Southwest 449 517 24,000  Level Indianapolis Center
Mon 11:23:11 PM 40.9656 -84.3100 218° Southwest 454 522 24,000  Level Indianapolis Center
Mon 11:24:11 PM 40.8669 -84.4106 218° Southwest 459 528 24,000  Level Indianapolis Center
Mon 11:25:11 PM 40.7661 -84.5161 218° Southwest 465 535 24,000  Level Indianapolis Center
Mon 11:26:11 PM 40.6653 -84.6186 217° Southwest 465 535 24,000  Level Indianapolis Center
Mon 11:27:11 PM 40.5642 -84.7181 218° Southwest 465 535 24,000  Level Indianapolis Center
Mon 11:28:11 PM 40.4653 -84.8200 216° Southwest 465 535 24,000 -300 Level Indianapolis Center
Mon 11:29:11 PM 40.3683 -84.9136 217° Southwest 455 524 23,400 -1,400 Descending Indianapolis Center
Mon 11:30:11 PM 40.2714 -85.0097 240° Southwest 441 507 21,200 -1,650 Descending Indianapolis Center
Mon 11:31:11 PM 40.2178 -85.1336 275° West 405 466 20,100 -1,600 Descending Indianapolis Center
Mon 11:32:11 PM 40.2261 -85.2672 273° West 372 428 18,000 -2,150 Descending Indianapolis Center
Mon 11:33:11 PM 40.2325 -85.4086 242° Southwest 365 420 15,800 -2,150 Descending Indianapolis Center
Mon 11:34:11 PM 40.1825 -85.5297 240° Southwest 360 414 13,700 -2,050 Descending Indianapolis Center
Mon 11:35:11 PM 40.1328 -85.6422 233° Southwest 365 420 11,700 -1,714 Descending Indianapolis Center
Mon 11:35:42 PM 40.1000 -85.7000 229° Southwest 350 403 11,100 -462 Descending Indianapolis TRACON
Mon 11:36:42 PM 40.0333 -85.8000 224° Southwest 358 412 11,000 -150 Descending Indianapolis TRACON
Mon 11:37:42 PM 39.9667 -85.8833 224° Southwest 355 409 10,800 -524 Descending Indianapolis TRACON
Mon 11:38:48 PM 39.9000 -85.9667 218° Southwest 312 359 9,900 -1,087 Descending Indianapolis TRACON
Mon 11:39:49 PM 39.8333 -86.0333 218° Southwest 296 341 8,500 -1,091 Descending Indianapolis TRACON
Mon 11:40:49 PM 39.7667 -86.1000 218° Southwest 288 331 7,700 -750 Descending Indianapolis TRACON
Mon 11:41:49 PM 39.7000 -86.1667 226° Southwest 282 325 7,000 -1,000 Descending Indianapolis TRACON
Mon 11:42:49 PM 39.6500 -86.2333 218° Southwest 277 319 5,700 -1,000 Descending Indianapolis TRACON
Mon 11:43:49 PM 39.6000 -86.2833 218° Southwest 249 287 5,000 -842 Descending Indianapolis TRACON
Mon 11:44:43 PM 39.5500 -86.3333 247° West 231 266 4,100 -1,053 Descending Indianapolis TRACON
Mon 11:45:43 PM 39.5333 -86.3833 311° West 194 223 3,000 -550 Descending Indianapolis TRACON
Mon 11:46:43 PM 39.5667 -86.4333 21° North 153 176 3,000  Level Indianapolis TRACON
Mon 11:47:44 PM 39.6000 -86.4167 38° Northeast 149 171 3,000 -200 Level Indianapolis TRACON
Mon 11:48:43 PM 39.6333 -86.3833 38° Northeast 142 163 2,600 -550 Descending Indianapolis TRACON
Mon 11:49:44 PM 39.6667 -86.3500 57° Northeast 140 161 1,900 -744 Descending Indianapolis TRACON
Mon 11:50:44 PM 39.6833 -86.3167 57° Northeast 142 163 1,100 -800 Descending Indianapolis TRACON

Login

Don't have an account? Register now (free) for customized features, flight alerts, and more!